createdAt,value
2022-08-20T00:01:56.453Z,22.40
2022-08-20T00:04:25.628Z,27.20
2022-08-20T00:06:54.849Z,24.40
2022-08-20T00:09:23.915Z,24.40
2022-08-20T00:11:54.172Z,24.80
2022-08-20T00:14:23.341Z,19.40
2022-08-20T00:16:52.433Z,26.40
2022-08-20T00:19:22.861Z,23.40
2022-08-20T00:21:55.729Z,24.00
2022-08-20T00:24:24.550Z,25.80
2022-08-20T00:26:53.933Z,25.60
2022-08-20T00:29:23.135Z,23.40
2022-08-20T00:31:53.052Z,25.20
2022-08-20T00:34:22.345Z,28.40
2022-08-20T00:36:51.547Z,26.00
2022-08-20T00:39:20.742Z,26.20
2022-08-20T00:41:52.916Z,21.80
2022-08-20T00:44:23.478Z,26.40
2022-08-20T00:46:54.279Z,37.00
2022-08-20T00:49:29.412Z,40.75
2022-08-20T00:52:10.716Z,36.00
2022-08-20T00:54:55.179Z,30.80
2022-08-20T00:57:59.125Z,47.50
2022-08-20T01:00:09.557Z,45.25
2022-08-20T01:02:38.856Z,42.25
2022-08-20T01:05:09.693Z,55.25
2022-08-20T01:07:40.057Z,59.50
2022-08-20T01:10:12.349Z,55.75
2022-08-20T01:12:46.464Z,47.25
2022-08-20T01:15:18.811Z,39.00
2022-08-20T01:17:51.850Z,37.25
2022-08-20T01:20:28.570Z,30.00
2022-08-20T01:23:21.350Z,30.60
2022-08-20T01:25:56.546Z,26.80
2022-08-20T01:28:28.656Z,25.60
2022-08-20T01:30:58.281Z,34.00
2022-08-20T01:33:28.199Z,37.25
2022-08-20T01:35:57.712Z,39.00
2022-08-20T01:38:27.578Z,44.50
2022-08-20T01:41:05.557Z,43.50
2022-08-20T01:43:37.155Z,41.50
2022-08-20T01:46:07.072Z,47.25
2022-08-20T01:48:36.159Z,45.75
2022-08-20T01:51:17.030Z,45.00
2022-08-20T01:53:52.210Z,35.80
2022-08-20T01:56:25.975Z,31.20
2022-08-20T01:58:59.028Z,26.40
2022-08-20T02:01:34.596Z,26.20
2022-08-20T02:04:07.602Z,26.20
2022-08-20T02:06:41.586Z,23.40
2022-08-20T02:09:16.184Z,23.40
2022-08-20T02:11:47.154Z,25.00
2022-08-20T02:14:17.238Z,21.80
2022-08-20T02:16:54.729Z,24.20
2022-08-20T02:19:24.491Z,18.20
2022-08-20T02:21:56.763Z,20.40
2022-08-20T02:24:25.871Z,17.80
2022-08-20T02:26:55.844Z,19.80
2022-08-20T02:29:26.413Z,18.00
2022-08-20T02:32:24.574Z,17.80
2022-08-20T02:34:26.442Z,16.20
2022-08-20T02:36:55.669Z,17.40
2022-08-20T02:39:26.168Z,17.80
2022-08-20T02:41:55.763Z,19.60
2022-08-20T02:44:24.968Z,17.80
2022-08-20T02:46:54.304Z,16.20
2022-08-20T02:49:23.877Z,15.20
2022-08-20T02:51:53.082Z,19.00
2022-08-20T02:54:22.279Z,19.00
2022-08-20T02:56:52.550Z,20.40
2022-08-20T02:59:21.702Z,18.00
2022-08-20T03:01:59.238Z,20.60
2022-08-20T03:04:23.269Z,19.00
2022-08-20T03:06:54.307Z,18.20
2022-08-20T03:09:23.462Z,18.40
2022-08-20T03:11:53.214Z,15.40
2022-08-20T03:14:22.516Z,19.00
2022-08-20T03:16:52.331Z,18.60
2022-08-20T03:19:21.755Z,16.40
2022-08-20T03:21:51.031Z,17.40
2022-08-20T03:24:20.451Z,16.80
2022-08-20T03:26:49.635Z,19.20
2022-08-20T03:29:18.778Z,21.00
2022-08-20T03:31:48.130Z,15.80
2022-08-20T03:34:17.331Z,15.80
2022-08-20T03:36:46.520Z,17.20
2022-08-20T03:39:15.844Z,17.80
2022-08-20T03:41:45.126Z,16.20
2022-08-20T03:44:14.227Z,14.40
2022-08-20T03:46:43.645Z,18.20
2022-08-20T03:49:12.830Z,20.40
2022-08-20T03:51:57.584Z,15.40
2022-08-20T03:54:13.068Z,17.60
2022-08-20T03:56:42.258Z,19.40
2022-08-20T03:59:11.431Z,15.20
2022-08-20T04:01:45.592Z,17.60
2022-08-20T04:04:12.173Z,14.20
2022-08-20T04:06:42.445Z,17.20
2022-08-20T04:09:12.864Z,10.40
2022-08-20T04:11:42.932Z,16.80
2022-08-20T04:14:17.420Z,17.20
2022-08-20T04:16:45.918Z,18.60
2022-08-20T04:19:16.721Z,16.60
2022-08-20T04:21:47.657Z,16.60
2022-08-20T04:24:22.520Z,17.80
2022-08-20T04:26:48.309Z,14.80
2022-08-20T04:29:17.498Z,14.60
2022-08-20T04:31:46.695Z,15.60
2022-08-20T04:34:17.436Z,16.60
2022-08-20T04:36:48.890Z,15.80
2022-08-20T04:39:18.490Z,15.80
2022-08-20T04:41:47.609Z,15.40
2022-08-20T04:44:16.893Z,15.60
2022-08-20T04:46:45.985Z,15.00
2022-08-20T04:49:15.335Z,15.40
2022-08-20T04:51:44.487Z,15.20
2022-08-20T04:54:15.007Z,9.40
2022-08-20T04:56:44.325Z,13.60
2022-08-20T04:59:14.050Z,14.00
2022-08-20T05:01:43.220Z,13.60
2022-08-20T05:04:12.410Z,12.60
2022-08-20T05:06:41.644Z,11.20
2022-08-20T05:09:10.820Z,13.60
2022-08-20T05:11:40.220Z,13.60
2022-08-20T05:14:10.819Z,17.60
2022-08-20T05:16:41.499Z,17.80
2022-08-20T05:19:13.654Z,14.80
2022-08-20T05:21:43.258Z,16.20
2022-08-20T05:24:13.167Z,15.20
2022-08-20T05:26:42.491Z,18.80
2022-08-20T05:29:13.512Z,17.20
2022-08-20T05:31:43.224Z,17.00
2022-08-20T05:34:13.749Z,18.20
2022-08-20T05:36:45.914Z,14.40
2022-08-20T05:39:17.067Z,18.60
2022-08-20T05:41:46.800Z,15.60
2022-08-20T05:44:16.387Z,15.40
2022-08-20T05:46:47.424Z,15.60
2022-08-20T05:49:20.333Z,12.60
2022-08-20T05:51:51.522Z,13.25
2022-08-20T05:54:21.363Z,12.80
